createdAt,value
2022-08-03T00:00:28.525Z,94872.20
2022-08-03T00:02:56.076Z,94872.97
2022-08-03T00:05:23.270Z,94868.58
2022-08-03T00:07:50.012Z,94873.42
2022-08-03T00:10:17.768Z,94869.31
2022-08-03T00:12:44.687Z,94869.64
2022-08-03T00:15:16.699Z,94871.98
2022-08-03T00:17:52.935Z,94869.95
2022-08-03T00:20:25.293Z,94866.19
2022-08-03T00:22:52.731Z,94868.71
2022-08-03T00:25:19.693Z,94869.55
2022-08-03T00:27:47.777Z,94871.91
2022-08-03T00:30:17.018Z,94870.84
2022-08-03T00:32:45.476Z,94869.48
2022-08-03T00:35:24.134Z,94868.60
2022-08-03T00:38:00.258Z,94865.04
2022-08-03T00:40:28.069Z,94866.63
2022-08-03T00:42:56.577Z,94865.54
2022-08-03T00:45:27.478Z,94866.91
2022-08-03T00:47:54.673Z,94873.24
2022-08-03T00:50:23.524Z,94872.89
2022-08-03T00:52:53.380Z,94874.29
2022-08-03T00:55:20.840Z,94871.58
2022-08-03T00:57:48.237Z,94871.63
2022-08-03T01:00:19.447Z,94874.13
2022-08-03T01:02:46.753Z,94871.98
2022-08-03T01:05:14.169Z,94875.33
2022-08-03T01:07:40.977Z,94879.20
2022-08-03T01:10:32.681Z,94873.06
2022-08-03T01:13:59.970Z,94870.39
2022-08-03T01:16:37.644Z,94869.05
2022-08-03T01:19:22.448Z,94870.52
2022-08-03T01:22:07.610Z,94866.05
2022-08-03T01:24:48.431Z,94865.02
2022-08-03T01:27:19.367Z,94864.31
2022-08-03T01:30:01.247Z,94865.49
2022-08-03T01:33:01.453Z,94861.86
2022-08-03T01:35:51.164Z,94857.94
2022-08-03T01:38:43.327Z,94859.73
2022-08-03T01:41:18.117Z,94855.42
2022-08-03T01:44:27.174Z,94852.33
2022-08-03T01:46:38.807Z,94851.23
2022-08-03T01:49:11.773Z,94850.43
2022-08-03T01:52:00.854Z,94854.13
2022-08-03T01:54:31.193Z,94856.73
2022-08-03T01:56:59.952Z,94857.10
2022-08-03T01:59:30.787Z,94858.61
2022-08-03T02:02:15.640Z,94860.71
2022-08-03T02:04:49.252Z,94865.63
2022-08-03T02:07:16.730Z,94866.06
2022-08-03T02:09:47.443Z,94865.61
2022-08-03T02:12:15.575Z,94865.33
2022-08-03T02:14:46.072Z,94866.39
2022-08-03T02:17:14.720Z,94865.66
2022-08-03T02:19:43.968Z,94866.08
2022-08-03T02:22:13.476Z,94863.31
2022-08-03T02:24:40.627Z,94859.89
2022-08-03T02:27:18.074Z,94859.63
2022-08-03T02:29:50.298Z,94857.13
2022-08-03T02:32:21.215Z,94859.67
2022-08-03T02:34:52.226Z,94853.81
2022-08-03T02:37:21.959Z,94856.58
2022-08-03T02:39:53.517Z,94860.56
2022-08-03T02:42:23.615Z,94861.11
2022-08-03T02:44:53.681Z,94859.82
2022-08-03T02:47:21.578Z,94861.27
2022-08-03T02:49:52.373Z,94858.44
2022-08-03T02:52:27.226Z,94858.04
2022-08-03T02:54:57.917Z,94860.83
2022-08-03T02:57:28.279Z,94855.13
2022-08-03T02:59:56.784Z,94855.10
2022-08-03T03:02:25.275Z,94854.09
2022-08-03T03:05:52.728Z,94853.38
2022-08-03T03:07:51.382Z,94853.71
2022-08-03T03:10:22.702Z,94854.81
2022-08-03T03:12:54.015Z,94861.71
2022-08-03T03:15:21.191Z,94864.05
2022-08-03T03:17:50.440Z,94861.30
2022-08-03T03:20:29.544Z,94864.08
2022-08-03T03:23:00.475Z,94861.05
2022-08-03T03:25:29.514Z,94858.35
2022-08-03T03:27:57.830Z,94858.95
2022-08-03T03:30:25.461Z,94853.55
2022-08-03T03:32:53.007Z,94858.09
2022-08-03T03:35:19.959Z,94860.81
2022-08-03T03:37:47.007Z,94865.02
2022-08-03T03:40:15.151Z,94864.54
2022-08-03T03:42:42.005Z,94866.27
2022-08-03T03:45:09.962Z,94871.59
2022-08-03T03:47:38.088Z,94871.48
2022-08-03T03:50:07.009Z,94872.65
2022-08-03T03:52:34.792Z,94877.25
2022-08-03T03:55:01.950Z,94878.98
2022-08-03T03:57:29.913Z,94885.40
2022-08-03T03:59:56.736Z,94888.41
2022-08-03T04:02:23.922Z,94887.02
2022-08-03T04:05:09.337Z,94883.42
2022-08-03T04:08:19.217Z,94883.50
2022-08-03T04:11:01.449Z,94886.06
2022-08-03T04:13:34.393Z,94884.81
2022-08-03T04:16:02.397Z,94882.92
2022-08-03T04:18:33.015Z,94887.55
2022-08-03T04:21:04.690Z,94887.19
2022-08-03T04:23:35.466Z,94888.41
2022-08-03T04:26:05.253Z,94894.27
2022-08-03T04:28:34.481Z,94893.02
2022-08-03T04:31:03.704Z,94892.53
2022-08-03T04:33:33.693Z,94900.59
2022-08-03T04:36:07.157Z,94897.60
2022-08-03T04:38:40.072Z,94898.92
2022-08-03T04:41:08.211Z,94897.30
2022-08-03T04:43:36.455Z,94898.90
2022-08-03T04:46:04.705Z,94899.05
2022-08-03T04:48:31.695Z,94901.88
2022-08-03T04:51:01.572Z,94900.50
2022-08-03T04:53:29.383Z,94905.73
2022-08-03T04:55:56.053Z,94909.23
2022-08-03T04:58:28.715Z,94913.13
2022-08-03T05:00:56.071Z,94912.98
2022-08-03T05:03:25.051Z,94917.11
2022-08-03T05:06:01.810Z,94919.59
2022-08-03T05:08:41.228Z,94920.73
2022-08-03T05:11:13.676Z,94922.40
2022-08-03T05:13:40.612Z,94920.35
2022-08-03T05:16:07.308Z,94920.89
2022-08-03T05:18:34.143Z,94925.27
2022-08-03T05:21:00.962Z,94926.97
2022-08-03T05:23:27.973Z,94930.63
2022-08-03T05:25:54.698Z,94930.63
2022-08-03T05:28:21.593Z,94933.48
2022-08-03T05:30:48.525Z,94930.43
2022-08-03T05:33:15.565Z,94930.98
2022-08-03T05:35:56.049Z,94931.29
2022-08-03T05:38:34.692Z,94934.15
2022-08-03T05:41:20.940Z,94937.85
2022-08-03T05:43:55.267Z,94938.91
2022-08-03T05:46:23.852Z,94940.27
2022-08-03T05:48:51.312Z,94944.16
2022-08-03T05:51:18.295Z,94942.36
2022-08-03T05:53:45.490Z,94942.19
2022-08-03T05:56:15.694Z,94940.95
2022-08-03T05:58:45.696Z,94948.39
2022-08-03T06:01:12.682Z,94946.52
2022-08-03T06:03:39.490Z,94951.80
2022-08-03T06:06:06.362Z,94957.52
2022-08-03T06:08:33.207Z,94954.59
2022-08-03T06:11:00.142Z,94955.45
2022-08-03T06:13:26.971Z,94954.89
2022-08-03T06:15:53.814Z,94957.50
2022-08-03T06:18:20.761Z,94958.65
2022-08-03T06:20:49.287Z,94959.31
2022-08-03T06:23:18.043Z,94957.79
2022-08-03T06:25:46.986Z,94956.15
2022-08-03T06:28:42.668Z,94952.41
2022-08-03T06:31:01.972Z,94954.06
2022-08-03T06:33:48.381Z,94957.17
2022-08-03T06:36:16.919Z,94954.69
2022-08-03T06:38:43.820Z,94953.08
2022-08-03T06:41:10.548Z,94949.02
2022-08-03T06:44:02.612Z,94949.02
2022-08-03T06:46:26.013Z,94946.38
2022-08-03T06:48:53.162Z,94949.14
2022-08-03T06:51:19.967Z,94950.54
2022-08-03T06:53:46.789Z,94949.36
2022-08-03T06:56:13.690Z,94952.84
2022-08-03T06:58:41.029Z,94950.89
2022-08-03T07:01:07.861Z,94951.92
2022-08-03T07:03:34.666Z,94951.11
2022-08-03T07:06:02.490Z,94951.41
2022-08-03T07:08:33.891Z,94947.46
2022-08-03T07:11:01.884Z,94949.94
2022-08-03T07:13:28.957Z,94950.98
2022-08-03T07:15:56.654Z,94951.70
2022-08-03T07:18:29.289Z,94951.71
2022-08-03T07:20:57.872Z,94947.53
2022-08-03T07:23:26.083Z,94946.86
2022-08-03T07:25:53.075Z,94946.48
2022-08-03T07:28:20.891Z,94946.83
2022-08-03T07:30:48.235Z,94943.39
2022-08-03T07:33:15.605Z,94946.75
2022-08-03T07:35:42.602Z,94947.27
2022-08-03T07:38:09.370Z,94949.75
2022-08-03T07:40:36.089Z,94948.61
2022-08-03T07:43:03.970Z,94945.45
2022-08-03T07:45:34.500Z,94947.66
2022-08-03T07:48:01.386Z,94950.28
2022-08-03T07:50:28.370Z,94950.27
2022-08-03T07:52:56.325Z,94952.05
2022-08-03T07:55:25.624Z,94958.44
2022-08-03T07:58:13.201Z,94950.96
2022-08-03T08:00:39.996Z,94948.88
2022-08-03T08:03:06.815Z,94949.08
2022-08-03T08:05:34.531Z,94949.56
2022-08-03T08:08:02.308Z,94955.84
2022-08-03T08:10:30.296Z,94955.84
2022-08-03T08:12:57.659Z,94954.98
2022-08-03T08:15:24.845Z,94949.72
2022-08-03T08:17:55.008Z,94952.08
2022-08-03T08:20:30.552Z,94952.49
2022-08-03T08:23:01.988Z,94952.20
2022-08-03T08:25:32.090Z,94952.72
2022-08-03T08:28:29.132Z,94954.30
2022-08-03T08:30:51.036Z,94956.69
2022-08-03T08:33:23.515Z,94954.15
2022-08-03T08:35:54.160Z,94952.23
2022-08-03T08:38:22.788Z,94955.73
2022-08-03T08:40:50.923Z,94955.38
2022-08-03T08:43:17.956Z,94952.92
2022-08-03T08:45:45.253Z,94949.77
2022-08-03T08:48:14.146Z,94947.64
2022-08-03T08:50:41.710Z,94946.28
2022-08-03T08:53:17.562Z,94941.54
2022-08-03T08:55:58.256Z,94941.83
2022-08-03T08:58:35.099Z,94938.72
2022-08-03T09:01:02.708Z,94934.91
2022-08-03T09:03:30.932Z,94930.36
2022-08-03T09:06:01.026Z,94925.70
2022-08-03T09:08:29.755Z,94920.70
2022-08-03T09:10:56.663Z,94921.94
2022-08-03T09:13:23.412Z,94919.21
2022-08-03T09:16:19.309Z,94917.07
2022-08-03T09:18:50.004Z,94907.83
2022-08-03T09:21:31.637Z,94912.38
2022-08-03T09:24:03.853Z,94905.27
2022-08-03T09:26:34.417Z,94900.79
2022-08-03T09:29:12.796Z,94907.52
2022-08-03T09:31:44.939Z,94907.79
2022-08-03T09:34:15.307Z,94902.80
2022-08-03T09:36:51.117Z,94911.29
2022-08-03T09:39:18.713Z,94907.46
2022-08-03T09:41:48.428Z,94902.92
2022-08-03T09:44:25.449Z,94903.58
2022-08-03T09:46:58.724Z,94900.73
2022-08-03T09:49:25.734Z,94903.21
2022-08-03T09:52:33.116Z,94905.02
2022-08-03T09:54:43.360Z,94902.80
2022-08-03T09:57:25.157Z,94895.05
2022-08-03T10:00:01.874Z,94898.48
2022-08-03T10:02:32.674Z,94895.04
2022-08-03T10:04:59.546Z,94896.63
2022-08-03T10:07:26.382Z,94897.32
2022-08-03T10:10:29.091Z,94888.42
2022-08-03T10:12:49.465Z,94889.89
2022-08-03T10:16:21.969Z,94887.09
2022-08-03T10:18:03.072Z,94881.30
2022-08-03T10:20:30.422Z,94880.94
2022-08-03T10:22:58.602Z,94879.81
2022-08-03T10:25:32.960Z,94874.25
2022-08-03T10:28:08.267Z,94876.10
2022-08-03T10:30:36.849Z,94875.96
2022-08-03T10:33:49.183Z,94874.36
2022-08-03T10:36:02.276Z,94868.64
2022-08-03T10:38:49.770Z,94873.95
2022-08-03T10:41:19.810Z,94874.01
2022-08-03T10:43:53.235Z,94868.13
2022-08-03T10:46:21.810Z,94870.70
2022-08-03T10:48:52.657Z,94870.74
2022-08-03T10:51:20.785Z,94868.56
2022-08-03T10:53:54.692Z,94863.38
2022-08-03T10:56:54.635Z,94857.48
2022-08-03T10:59:46.462Z,94856.38
2022-08-03T11:02:14.873Z,94857.77
2022-08-03T11:04:45.396Z,94854.80
2022-08-03T11:07:22.515Z,94850.48
2022-08-03T11:09:50.842Z,94852.98
2022-08-03T11:12:31.777Z,94859.30
2022-08-03T11:15:04.542Z,94851.43
2022-08-03T11:17:55.327Z,94850.25
2022-08-03T11:20:53.526Z,94849.58
2022-08-03T11:24:02.744Z,94850.98
2022-08-03T11:26:34.352Z,94853.80
2022-08-03T11:29:30.508Z,94846.12
2022-08-03T11:31:57.760Z,94846.23
2022-08-03T11:34:24.934Z,94844.02
2022-08-03T11:37:22.340Z,94839.73
2022-08-03T11:39:53.191Z,94830.31
2022-08-03T11:42:23.333Z,94826.05
2022-08-03T11:44:57.126Z,94821.27
2022-08-03T11:47:27.364Z,94821.35
2022-08-03T11:50:02.337Z,94820.71
2022-08-03T11:52:36.459Z,94816.41
2022-08-03T11:55:09.579Z,94816.52
2022-08-03T11:59:01.178Z,94807.85
2022-08-03T12:00:33.252Z,94813.27
2022-08-03T12:03:09.419Z,94814.85
2022-08-03T12:05:41.483Z,94810.50
2022-08-03T12:08:10.744Z,94805.64
2022-08-03T12:10:40.515Z,94799.17
2022-08-03T12:13:56.596Z,94795.38
2022-08-03T12:15:59.587Z,94795.73
2022-08-03T12:18:26.584Z,94796.31
2022-08-03T12:21:03.273Z,94795.50
2022-08-03T12:23:30.480Z,94791.45
2022-08-03T12:26:06.463Z,94787.38
2022-08-03T12:28:37.414Z,94786.92
2022-08-03T12:31:12.781Z,94790.52
2022-08-03T12:34:04.420Z,94781.71
2022-08-03T12:36:35.562Z,94777.54
2022-08-03T12:39:09.469Z,94782.98
2022-08-03T12:41:39.243Z,94781.80
2022-08-03T12:44:08.205Z,94780.67
2022-08-03T12:46:46.931Z,94781.34
2022-08-03T12:49:19.753Z,94775.64
2022-08-03T12:51:46.575Z,94774.48
2022-08-03T12:54:24.346Z,94767.77
2022-08-03T12:57:10.540Z,94766.41
2022-08-03T12:59:49.850Z,94767.66
2022-08-03T13:02:23.713Z,94771.58
2022-08-03T13:04:52.513Z,94772.70
2022-08-03T13:07:21.633Z,94768.28
2022-08-03T13:09:55.736Z,94763.64
2022-08-03T13:12:28.760Z,94756.34
2022-08-03T13:14:57.771Z,94750.30
2022-08-03T13:17:26.050Z,94751.35
2022-08-03T13:19:53.868Z,94754.36
2022-08-03T13:22:25.511Z,94757.73
2022-08-03T13:24:56.165Z,94752.84
2022-08-03T13:28:12.297Z,94749.03
2022-08-03T13:30:11.485Z,94742.91
2022-08-03T13:32:38.984Z,94742.77
2022-08-03T13:35:08.264Z,94744.50
2022-08-03T13:37:35.800Z,94739.26
2022-08-03T13:40:05.728Z,94740.66
2022-08-03T13:42:34.893Z,94739.46
2022-08-03T13:45:03.769Z,94737.67
2022-08-03T13:47:30.590Z,94735.41
2022-08-03T13:50:01.226Z,94736.04
2022-08-03T13:52:37.083Z,94733.30
2022-08-03T13:55:24.157Z,94731.48
2022-08-03T13:58:06.537Z,94740.60
2022-08-03T14:00:35.054Z,94738.95
2022-08-03T14:03:13.169Z,94730.60
2022-08-03T14:05:42.368Z,94732.38
2022-08-03T14:08:13.610Z,94734.72
2022-08-03T14:10:44.532Z,94730.58
2022-08-03T14:13:16.636Z,94731.82
2022-08-03T14:15:50.860Z,94728.17
2022-08-03T14:18:29.152Z,94728.70
2022-08-03T14:21:06.396Z,94725.65
2022-08-03T14:23:35.912Z,94722.02
2022-08-03T14:26:03.264Z,94718.02
2022-08-03T14:28:30.126Z,94716.38
2022-08-03T14:30:57.035Z,94713.05
2022-08-03T14:33:24.658Z,94715.06
2022-08-03T14:35:52.604Z,94713.41
2022-08-03T14:38:23.421Z,94708.09
2022-08-03T14:40:51.360Z,94714.92
2022-08-03T14:43:18.712Z,94712.02
2022-08-03T14:45:45.567Z,94708.38
2022-08-03T14:50:34.124Z,94705.80
2022-08-03T14:50:59.867Z,94702.13
2022-08-03T14:53:26.781Z,94705.49
2022-08-03T14:55:54.346Z,94706.86
2022-08-03T14:58:22.900Z,94703.61
2022-08-03T15:00:51.366Z,94704.10
2022-08-03T15:03:25.826Z,94702.30
2022-08-03T15:05:55.085Z,94698.36
2022-08-03T15:08:24.203Z,94698.02
2022-08-03T15:10:51.881Z,94696.77
2022-08-03T15:13:20.263Z,94692.95
2022-08-03T15:15:48.103Z,94694.23
2022-08-03T15:18:14.876Z,94691.79
2022-08-03T15:20:46.358Z,94693.53
2022-08-03T15:23:15.678Z,94694.34
2022-08-03T15:26:28.055Z,94690.80
2022-08-03T15:28:31.535Z,94689.59
2022-08-03T15:30:58.364Z,94689.42
2022-08-03T15:33:25.276Z,94688.81
2022-08-03T15:35:53.551Z,94693.80
2022-08-03T15:38:26.073Z,94692.83
2022-08-03T15:40:54.807Z,94695.28
2022-08-03T15:43:23.173Z,94695.05
2022-08-03T15:46:19.056Z,94693.66
2022-08-03T15:48:36.918Z,94693.05
2022-08-03T15:51:05.408Z,94687.93
2022-08-03T15:53:33.900Z,94692.16
2022-08-03T15:56:04.203Z,94692.77
2022-08-03T15:59:09.822Z,94696.17
2022-08-03T16:01:30.215Z,94691.41
2022-08-03T16:03:57.002Z,94694.06
2022-08-03T16:06:34.870Z,94690.80
2022-08-03T16:09:05.024Z,94690.16
2022-08-03T16:11:32.035Z,94691.67
2022-08-03T16:14:13.119Z,94689.52
2022-08-03T16:16:51.143Z,94697.84
2022-08-03T16:19:17.902Z,94697.98
2022-08-03T16:21:48.882Z,94701.58
2022-08-03T16:24:26.829Z,94698.83
2022-08-03T16:26:55.950Z,94698.81
2022-08-03T16:29:23.786Z,94696.41
2022-08-03T16:31:58.189Z,94701.84
2022-08-03T16:34:39.607Z,94698.27
2022-08-03T16:37:22.455Z,94697.57
2022-08-03T16:39:54.121Z,94703.27
2022-08-03T16:42:21.066Z,94705.53
2022-08-03T16:44:48.152Z,94706.41
2022-08-03T16:47:22.308Z,94706.05
2022-08-03T16:49:53.007Z,94708.11
2022-08-03T16:52:22.890Z,94709.35
2022-08-03T16:54:52.779Z,94714.92
2022-08-03T16:57:56.700Z,94716.59
2022-08-03T17:00:33.701Z,94723.77
2022-08-03T17:03:42.660Z,94722.36
2022-08-03T17:06:34.530Z,94726.09
2022-08-03T17:09:03.180Z,94725.59
2022-08-03T17:11:32.901Z,94730.81
2022-08-03T17:14:01.127Z,94729.77
2022-08-03T17:16:30.366Z,94734.00
2022-08-03T17:19:02.037Z,94734.38
2022-08-03T17:21:34.956Z,94736.80
2022-08-03T17:24:27.959Z,94741.16
2022-08-03T17:26:58.385Z,94743.61
2022-08-03T17:29:29.927Z,94744.84
2022-08-03T17:31:56.790Z,94747.57
2022-08-03T17:34:26.234Z,94753.79
2022-08-03T17:37:27.030Z,94757.25
2022-08-03T17:40:03.885Z,94759.40
2022-08-03T17:42:33.203Z,94762.01
2022-08-03T17:45:03.913Z,94763.52
2022-08-03T17:47:41.215Z,94766.20
2022-08-03T17:50:24.875Z,94767.17
2022-08-03T17:53:07.820Z,94767.08
2022-08-03T17:55:56.440Z,94766.70
2022-08-03T17:58:55.556Z,94770.46
2022-08-03T18:01:59.499Z,94774.23
2022-08-03T18:04:41.304Z,94774.60
2022-08-03T18:07:12.652Z,94776.65
2022-08-03T18:10:04.538Z,94783.77
2022-08-03T18:12:42.258Z,94783.19
2022-08-03T18:15:22.004Z,94780.23
2022-08-03T18:17:55.603Z,94782.66
2022-08-03T18:20:34.369Z,94782.83
2022-08-03T18:23:05.825Z,94787.81
2022-08-03T18:25:45.431Z,94791.49
2022-08-03T18:28:23.237Z,94795.53
2022-08-03T18:30:53.964Z,94798.39
2022-08-03T18:34:16.367Z,94800.38
2022-08-03T18:36:29.426Z,94798.51
2022-08-03T18:38:59.232Z,94802.67
2022-08-03T18:41:33.428Z,94802.38
2022-08-03T18:44:07.923Z,94805.70
2022-08-03T18:46:49.577Z,94807.44
2022-08-03T18:50:10.854Z,94812.48
2022-08-03T18:52:53.194Z,94813.70
2022-08-03T18:55:33.644Z,94814.68
2022-08-03T18:58:17.570Z,94818.85
2022-08-03T19:01:15.447Z,94822.71
2022-08-03T19:04:26.461Z,94823.52
2022-08-03T19:07:08.069Z,94827.38
2022-08-03T19:09:52.619Z,94827.31
2022-08-03T19:12:44.671Z,94829.61
2022-08-03T19:15:15.778Z,94835.11
2022-08-03T19:17:52.884Z,94835.70
2022-08-03T19:20:30.960Z,94835.36
2022-08-03T19:23:00.408Z,94834.44
2022-08-03T19:25:34.949Z,94835.77
2022-08-03T19:28:17.182Z,94838.67
2022-08-03T19:30:53.381Z,94837.44
2022-08-03T19:33:21.363Z,94839.39
2022-08-03T19:35:54.638Z,94844.86
2022-08-03T19:38:29.114Z,94846.54
2022-08-03T19:41:03.693Z,94848.10
2022-08-03T19:43:53.229Z,94848.87
2022-08-03T19:46:23.064Z,94852.63
2022-08-03T19:49:14.613Z,94854.79
2022-08-03T19:51:58.893Z,94855.94
2022-08-03T19:54:52.779Z,94859.19
2022-08-03T19:57:24.879Z,94860.38
2022-08-03T19:59:53.585Z,94859.31
2022-08-03T20:02:26.579Z,94861.42
2022-08-03T20:04:59.749Z,94865.86
2022-08-03T20:07:30.814Z,94866.28
2022-08-03T20:10:01.411Z,94866.69
2022-08-03T20:12:33.199Z,94864.09
2022-08-03T20:15:06.485Z,94866.70
2022-08-03T20:17:55.902Z,94871.09
2022-08-03T20:20:36.131Z,94870.53
2022-08-03T20:23:23.101Z,94873.56
2022-08-03T20:25:58.806Z,94876.36
2022-08-03T20:28:32.881Z,94880.52
2022-08-03T20:31:00.162Z,94882.14
2022-08-03T20:33:46.669Z,94886.52
2022-08-03T20:36:18.266Z,94888.13
2022-08-03T20:38:47.869Z,94888.42
2022-08-03T20:41:17.047Z,94885.42
2022-08-03T20:43:44.556Z,94886.88
2022-08-03T20:46:29.102Z,94886.80
2022-08-03T20:51:49.698Z,94889.27
2022-08-03T20:54:30.573Z,94887.37
2022-08-03T20:57:04.099Z,94884.42
2022-08-03T20:59:47.004Z,94888.36
2022-08-03T21:02:30.557Z,94892.61
2022-08-03T21:05:03.612Z,94894.16
2022-08-03T21:08:05.288Z,94896.42
2022-08-03T21:10:37.911Z,94895.64
2022-08-03T21:13:13.534Z,94884.83
2022-08-03T21:16:11.708Z,94899.05
2022-08-03T21:18:51.011Z,94896.14
2022-08-03T21:21:20.922Z,94897.67
2022-08-03T21:23:55.024Z,94905.10
2022-08-03T21:26:24.987Z,94902.34
2022-08-03T21:28:54.475Z,94904.58
2022-08-03T21:31:25.667Z,94911.27
2022-08-03T21:34:05.841Z,94910.58
2022-08-03T21:36:36.199Z,94909.73
2022-08-03T21:39:06.933Z,94913.45
2022-08-03T21:41:33.784Z,94912.40
2022-08-03T21:44:01.802Z,94916.55
2022-08-03T21:46:35.297Z,94918.73
2022-08-03T21:50:04.835Z,94920.09
2022-08-03T21:51:56.377Z,94921.20
2022-08-03T21:54:27.441Z,94922.63
2022-08-03T21:56:55.468Z,94928.34
2022-08-03T21:59:23.632Z,94927.04
2022-08-03T22:01:55.245Z,94933.50
2022-08-03T22:04:50.222Z,94933.71
2022-08-03T22:07:13.817Z,94937.41
2022-08-03T22:09:40.984Z,94937.46
2022-08-03T22:12:30.630Z,94938.70
2022-08-03T22:15:01.088Z,94940.84
2022-08-03T22:17:55.146Z,94942.15
2022-08-03T22:20:21.514Z,94941.48
2022-08-03T22:22:54.947Z,94944.36
2022-08-03T22:25:29.095Z,94941.27
2022-08-03T22:27:59.991Z,94938.19
2022-08-03T22:30:27.221Z,94943.39
2022-08-03T22:32:56.532Z,94944.04
2022-08-03T22:35:26.144Z,94943.02
2022-08-03T22:37:58.530Z,94941.36
2022-08-03T22:40:27.320Z,94939.38
2022-08-03T22:42:55.115Z,94941.39
2022-08-03T22:46:08.520Z,94942.20
2022-08-03T22:48:08.800Z,94939.46
2022-08-03T22:50:35.764Z,94938.40
2022-08-03T22:53:03.439Z,94937.43
2022-08-03T22:55:31.416Z,94937.63
2022-08-03T22:57:58.251Z,94938.42
2022-08-03T23:00:25.126Z,94936.65
2022-08-03T23:02:55.047Z,94935.99
2022-08-03T23:06:00.304Z,94935.53
2022-08-03T23:08:24.299Z,94936.59
2022-08-03T23:10:52.937Z,94933.41
2022-08-03T23:13:24.174Z,94931.48
2022-08-03T23:15:59.572Z,94929.35
2022-08-03T23:18:34.097Z,94929.70
2022-08-03T23:21:10.959Z,94928.48
2022-08-03T23:23:44.145Z,94935.56
2022-08-03T23:26:12.898Z,94930.02
2022-08-03T23:28:41.204Z,94931.32
2022-08-03T23:31:08.812Z,94926.53
2022-08-03T23:33:40.182Z,94926.33
2022-08-03T23:36:17.370Z,94928.39
2022-08-03T23:38:55.123Z,94928.48
2022-08-03T23:41:22.258Z,94927.20
2022-08-03T23:43:51.687Z,94926.83
2022-08-03T23:46:23.081Z,94921.95
2022-08-03T23:48:50.956Z,94916.77
2022-08-03T23:51:34.352Z,94920.13
2022-08-03T23:54:09.498Z,94920.02
2022-08-03T23:56:46.147Z,94919.29
2022-08-03T23:59:18.804Z,94916.33
